Terminal Aerodrome Forecast
Issued by NWS

Home | Current Version | Previous Version | Graphics & Text | Print | Product List | Glossary On
Versions: 1 2 3 4 5 6 7 8 9 10 11 12 13 14 15 16
693
FTUS43 KMPX 191736
TAFAXN
TAF
KAXN 191736Z 1918/2018 19010KT P6SM SKC
     FM200500 17010KT P6SM SCT250
     FM200900 21008KT P6SM SCT120 BKN250
     FM201400 33009KT P6SM SCT040 BKN090=

USA.gov is the U.S. government's official web portal to all federal, state and local government web resources and services.